createdAt,value
2022-07-31T00:04:58.182Z,2.33
2022-07-31T00:10:03.074Z,2.20
2022-07-31T00:15:10.054Z,2.40
2022-07-31T00:20:15.727Z,2.88
2022-07-31T00:25:20.542Z,2.60
2022-07-31T00:30:24.063Z,2.75
2022-07-31T00:35:27.585Z,2.40
2022-07-31T00:40:32.735Z,2.47
2022-07-31T00:45:36.319Z,2.90
2022-07-31T00:50:41.047Z,2.42
2022-07-31T00:55:51.955Z,2.25
2022-07-31T01:00:55.866Z,2.70
2022-07-31T01:05:59.396Z,2.50
2022-07-31T01:11:08.030Z,2.47
2022-07-31T01:16:19.292Z,2.90
2022-07-31T01:21:30.386Z,2.95
2022-07-31T01:31:46.541Z,3.05
2022-07-31T01:36:58.113Z,3.80
2022-07-31T01:42:04.846Z,3.75
2022-07-31T01:47:12.806Z,3.22
2022-07-31T01:52:17.820Z,3.30
2022-07-31T01:57:24.696Z,2.50
2022-07-31T02:02:32.715Z,3.00
2022-07-31T02:07:39.119Z,3.90
2022-07-31T02:12:44.452Z,3.33
2022-07-31T02:17:51.350Z,3.55
2022-07-31T02:23:30.449Z,3.15
2022-07-31T02:28:36.460Z,3.63
2022-07-31T02:33:44.458Z,3.03
2022-07-31T02:38:49.693Z,4.15
2022-07-31T02:43:54.751Z,3.10
2022-07-31T02:49:03.287Z,3.28
2022-07-31T02:54:07.158Z,3.13
2022-07-31T02:59:11.125Z,2.75
2022-07-31T03:04:35.823Z,3.83
2022-07-31T03:09:39.387Z,3.05
2022-07-31T03:15:03.472Z,2.40
2022-07-31T03:20:12.383Z,2.88
2022-07-31T03:25:21.890Z,3.20
2022-07-31T03:35:34.803Z,5.15
2022-07-31T03:45:47.905Z,4.50
2022-07-31T03:50:53.976Z,4.88
2022-07-31T03:55:58.632Z,7.95
2022-07-31T04:01:03.220Z,8.75
2022-07-31T04:06:11.176Z,6.05
2022-07-31T04:11:14.849Z,6.78
2022-07-31T04:16:18.336Z,9.20
2022-07-31T04:21:23.184Z,7.70
2022-07-31T04:26:27.572Z,8.30
2022-07-31T04:31:36.229Z,7.38
2022-07-31T04:36:43.055Z,8.98
2022-07-31T04:41:46.685Z,19.35
2022-07-31T04:46:50.413Z,8.60
2022-07-31T04:51:55.525Z,7.63
2022-07-31T04:56:59.225Z,8.90
2022-07-31T05:02:04.280Z,9.43
2022-07-31T05:07:09.489Z,8.57
2022-07-31T05:12:12.949Z,8.43
2022-07-31T05:17:17.205Z,9.48
2022-07-31T05:22:48.008Z,8.90
2022-07-31T05:28:28.254Z,11.25
2022-07-31T05:33:34.427Z,10.52
2022-07-31T05:38:40.185Z,12.70
2022-07-31T05:44:18.658Z,10.82
2022-07-31T05:49:26.677Z,11.48
2022-07-31T05:54:33.619Z,12.02
2022-07-31T06:00:17.620Z,12.32
2022-07-31T06:05:22.048Z,14.45
2022-07-31T06:10:27.525Z,11.93
2022-07-31T06:15:35.890Z,14.07
2022-07-31T06:20:40.043Z,14.00
2022-07-31T06:25:45.026Z,14.45
2022-07-31T06:30:51.258Z,12.80
2022-07-31T06:35:55.114Z,15.38
2022-07-31T06:41:48.209Z,16.52
2022-07-31T06:47:07.228Z,15.98
2022-07-31T06:52:39.841Z,15.48
2022-07-31T06:57:44.738Z,16.23
2022-07-31T07:02:48.838Z,16.33
2022-07-31T07:07:52.739Z,16.23
2022-07-31T07:12:57.745Z,14.05
2022-07-31T07:18:01.690Z,14.93
2022-07-31T07:23:11.774Z,15.45
2022-07-31T07:28:30.549Z,13.73
2022-07-31T07:33:41.856Z,13.63
2022-07-31T07:38:50.084Z,13.38
2022-07-31T07:43:56.415Z,11.13
2022-07-31T07:49:04.031Z,11.02
2022-07-31T07:54:22.732Z,12.32
2022-07-31T07:59:46.512Z,12.50
2022-07-31T08:05:10.405Z,11.40
2022-07-31T08:10:19.133Z,13.05
2022-07-31T08:15:44.190Z,11.38
2022-07-31T08:21:00.183Z,11.75
2022-07-31T08:26:06.675Z,12.40
2022-07-31T08:31:11.947Z,11.20
2022-07-31T08:36:28.480Z,13.98
2022-07-31T08:41:33.643Z,11.73
2022-07-31T08:46:41.092Z,13.52
2022-07-31T08:51:51.650Z,11.32
2022-07-31T08:57:31.645Z,9.77
2022-07-31T09:02:36.607Z,10.90
2022-07-31T09:07:58.811Z,12.55
2022-07-31T09:13:13.856Z,11.25
2022-07-31T09:18:24.665Z,10.57
2022-07-31T09:23:47.060Z,10.05
2022-07-31T09:28:51.991Z,10.63
2022-07-31T09:33:56.996Z,10.35
2022-07-31T09:39:26.983Z,10.38
2022-07-31T09:44:48.704Z,12.40
2022-07-31T09:49:59.714Z,12.68
2022-07-31T09:55:15.987Z,13.77
2022-07-31T10:00:22.294Z,12.70
2022-07-31T10:05:28.970Z,13.70
2022-07-31T10:10:37.365Z,14.93
2022-07-31T10:16:04.604Z,14.77
2022-07-31T10:21:34.949Z,16.70
2022-07-31T10:27:00.421Z,16.90
2022-07-31T10:32:05.166Z,17.17
2022-07-31T10:37:16.315Z,17.88
2022-07-31T10:42:45.001Z,17.63
2022-07-31T10:47:56.067Z,19.20
2022-07-31T10:53:21.013Z,17.58
2022-07-31T10:58:49.177Z,15.52
2022-07-31T11:04:15.484Z,19.65
2022-07-31T11:09:51.245Z,19.48
2022-07-31T11:15:24.401Z,18.30
2022-07-31T11:20:48.011Z,18.42
2022-07-31T11:25:52.889Z,18.42
2022-07-31T11:30:57.902Z,17.85
2022-07-31T11:36:07.628Z,17.70
2022-07-31T11:41:14.897Z,17.20
2022-07-31T11:46:26.181Z,16.88
2022-07-31T11:51:31.020Z,17.70
2022-07-31T11:56:35.909Z,17.25
2022-07-31T12:01:40.601Z,14.38
2022-07-31T12:06:44.511Z,15.32
2022-07-31T12:11:49.428Z,13.43
2022-07-31T12:16:52.892Z,12.05
2022-07-31T12:21:56.713Z,12.68
2022-07-31T12:27:02.398Z,10.35
2022-07-31T12:32:07.272Z,11.48
2022-07-31T12:37:12.566Z,9.68
2022-07-31T12:42:30.804Z,9.57
2022-07-31T12:47:35.917Z,8.30
2022-07-31T12:52:39.437Z,8.57
2022-07-31T12:57:51.788Z,7.75
2022-07-31T13:02:57.121Z,7.03
2022-07-31T13:08:00.614Z,7.68
2022-07-31T13:13:05.398Z,7.50
2022-07-31T13:18:09.157Z,7.63
2022-07-31T13:23:12.610Z,7.90
2022-07-31T13:28:17.513Z,8.50
2022-07-31T13:33:21.036Z,8.68
2022-07-31T13:38:24.584Z,8.20
2022-07-31T13:43:29.428Z,7.32
2022-07-31T13:48:33.368Z,7.88
2022-07-31T13:53:36.882Z,8.43
2022-07-31T13:58:41.723Z,8.15
2022-07-31T14:03:45.180Z,7.47
2022-07-31T14:08:49.877Z,5.90
2022-07-31T14:13:55.553Z,6.43
2022-07-31T14:19:01.495Z,5.88
2022-07-31T14:24:05.633Z,5.53
2022-07-31T14:29:10.495Z,5.47
2022-07-31T14:34:14.006Z,4.22
2022-07-31T14:39:17.734Z,4.38
2022-07-31T14:44:23.956Z,3.70
2022-07-31T14:50:06.836Z,4.60
2022-07-31T14:54:56.613Z,4.63
2022-07-31T15:00:01.484Z,5.38
2022-07-31T15:06:40.847Z,5.85
2022-07-31T15:10:29.196Z,4.50
2022-07-31T15:15:34.502Z,4.30
2022-07-31T15:20:37.948Z,5.75
2022-07-31T15:25:41.427Z,5.90
2022-07-31T15:30:46.266Z,5.40
2022-07-31T15:35:49.884Z,4.50
2022-07-31T15:40:53.398Z,3.55
2022-07-31T15:46:01.968Z,3.55
2022-07-31T15:51:09.004Z,3.28
2022-07-31T15:56:12.593Z,3.00
2022-07-31T16:01:17.481Z,2.70
2022-07-31T16:06:21.128Z,3.35
2022-07-31T16:12:04.076Z,3.10
2022-07-31T16:16:56.881Z,3.20
2022-07-31T16:22:01.009Z,2.85
2022-07-31T16:27:04.968Z,3.17
2022-07-31T16:32:10.172Z,3.72
2022-07-31T16:37:13.726Z,3.03
2022-07-31T16:42:17.428Z,3.90
2022-07-31T16:47:45.729Z,4.25
2022-07-31T16:52:45.894Z,3.95
2022-07-31T16:57:49.390Z,4.35
2022-07-31T17:02:54.341Z,5.45
2022-07-31T17:07:57.804Z,5.50
2022-07-31T17:13:01.369Z,5.32
2022-07-31T17:18:06.466Z,5.35
2022-07-31T17:23:09.940Z,6.43
2022-07-31T17:28:15.389Z,5.45
2022-07-31T17:33:20.380Z,6.60
2022-07-31T17:38:43.911Z,5.43
2022-07-31T17:43:50.360Z,5.88
2022-07-31T17:48:58.020Z,5.95
2022-07-31T17:54:01.674Z,6.13
2022-07-31T17:59:05.816Z,6.10
2022-07-31T18:04:10.827Z,5.50
2022-07-31T18:09:20.635Z,6.00
2022-07-31T18:14:24.930Z,5.97
2022-07-31T18:19:30.040Z,5.45
2022-07-31T18:24:33.498Z,5.43
2022-07-31T18:29:36.983Z,5.80
2022-07-31T18:34:41.806Z,5.20
2022-07-31T18:39:48.614Z,4.68
2022-07-31T18:44:52.953Z,4.60
2022-07-31T18:51:00.751Z,4.95
2022-07-31T18:55:21.401Z,4.78
2022-07-31T19:00:24.990Z,5.00
2022-07-31T19:05:30.163Z,5.20
2022-07-31T19:10:33.632Z,11.27
2022-07-31T19:15:37.838Z,5.47
2022-07-31T19:20:58.824Z,5.22
2022-07-31T19:26:08.823Z,5.28
2022-07-31T19:31:13.584Z,4.82
2022-07-31T19:36:18.472Z,5.13
2022-07-31T19:41:22.350Z,5.03
2022-07-31T19:46:25.915Z,5.50
2022-07-31T19:51:31.327Z,6.25
2022-07-31T19:56:35.049Z,5.97
2022-07-31T20:01:38.563Z,6.28
2022-07-31T20:06:43.498Z,5.68
2022-07-31T20:11:47.812Z,7.05
2022-07-31T20:16:51.279Z,6.13
2022-07-31T20:21:57.531Z,6.10
2022-07-31T20:27:00.984Z,7.32
2022-07-31T20:32:05.061Z,7.97
2022-07-31T20:37:10.068Z,12.18
2022-07-31T20:42:13.542Z,6.82
2022-07-31T20:47:19.576Z,8.20
2022-07-31T20:52:26.426Z,7.03
2022-07-31T20:57:29.931Z,7.32
2022-07-31T21:02:33.447Z,8.13
2022-07-31T21:07:38.336Z,8.48
2022-07-31T21:12:41.811Z,7.50
2022-07-31T21:17:45.324Z,8.93
2022-07-31T21:22:50.137Z,8.90
2022-07-31T21:27:54.399Z,10.02
2022-07-31T21:32:58.249Z,11.10
2022-07-31T21:38:04.308Z,10.38
2022-07-31T21:43:08.597Z,10.05
2022-07-31T21:48:13.772Z,10.90
2022-07-31T21:53:18.641Z,10.80
2022-07-31T21:58:22.107Z,11.70
2022-07-31T22:03:26.395Z,11.73
2022-07-31T22:08:31.274Z,10.15
2022-07-31T22:13:34.757Z,12.10
2022-07-31T22:18:38.730Z,12.25
2022-07-31T22:23:43.907Z,12.80
2022-07-31T22:28:48.494Z,10.57
2022-07-31T22:33:52.372Z,12.35
2022-07-31T22:38:58.096Z,13.55
2022-07-31T22:44:13.389Z,12.02
2022-07-31T22:49:19.927Z,10.60
2022-07-31T22:54:24.775Z,10.18
2022-07-31T22:59:28.228Z,9.48
2022-07-31T23:04:31.743Z,9.77
2022-07-31T23:09:36.690Z,10.63
2022-07-31T23:14:40.173Z,10.73
2022-07-31T23:19:43.950Z,10.20
2022-07-31T23:24:57.600Z,10.68
2022-07-31T23:30:01.291Z,10.85
2022-07-31T23:35:05.129Z,8.85
2022-07-31T23:40:11.577Z,9.05
2022-07-31T23:45:15.002Z,8.20
2022-07-31T23:50:19.178Z,7.53
2022-07-31T23:55:24.175Z,8.82
